createdAt,value
2019-02-26T00:01:18.455Z,102686.11
2019-02-26T00:03:49.978Z,102691.30
2019-02-26T00:06:25.388Z,102690.22
2019-02-26T00:09:01.160Z,102691.80
2019-02-26T00:11:35.653Z,102680.05
2019-02-26T00:14:08.296Z,102672.25
2019-02-26T00:16:42.431Z,102682.58
2019-02-26T00:19:16.653Z,102688.39
2019-02-26T00:21:51.760Z,102674.09
2019-02-26T00:24:25.042Z,102669.23
2019-02-26T00:27:00.921Z,102673.53
2019-02-26T00:29:33.378Z,102676.12
2019-02-26T00:32:07.135Z,102676.59
2019-02-26T00:34:41.698Z,102677.39
2019-02-26T00:37:14.997Z,102677.61
2019-02-26T00:39:49.756Z,102681.84
2019-02-26T00:42:24.271Z,102685.41
2019-02-26T00:45:00.961Z,102675.65
2019-02-26T00:47:34.431Z,102678.36
2019-02-26T00:50:11.957Z,102679.77
2019-02-26T00:52:46.326Z,102677.27
2019-02-26T00:55:23.150Z,102683.38
2019-02-26T00:57:56.859Z,102679.81
2019-02-26T01:00:30.887Z,102686.47
2019-02-26T01:03:05.960Z,102686.53
2019-02-26T01:05:41.010Z,102682.52
2019-02-26T01:08:15.730Z,102686.47
2019-02-26T01:10:49.780Z,102688.17
2019-02-26T01:13:25.640Z,102680.56
2019-02-26T01:15:58.108Z,102682.53
2019-02-26T01:18:31.415Z,102673.84
2019-02-26T01:21:04.762Z,102668.31
2019-02-26T01:23:38.062Z,102680.20
2019-02-26T01:26:12.231Z,102668.75
2019-02-26T01:28:48.203Z,102669.42
2019-02-26T01:31:22.425Z,102665.26
2019-02-26T01:33:57.387Z,102671.12
2019-02-26T01:36:30.753Z,102669.77
2019-02-26T01:39:09.277Z,102664.97
2019-02-26T01:41:45.465Z,102653.75
2019-02-26T01:44:17.096Z,102656.96
2019-02-26T01:46:50.464Z,102651.98
2019-02-26T01:49:25.875Z,102650.43
2019-02-26T01:51:58.774Z,102650.89
2019-02-26T01:54:33.527Z,102653.68
2019-02-26T01:57:09.123Z,102652.15
2019-02-26T01:59:42.137Z,102639.96
2019-02-26T02:02:18.136Z,102635.38
2019-02-26T02:04:50.476Z,102631.16
2019-02-26T02:07:25.490Z,102633.71
2019-02-26T02:10:00.491Z,102636.17
2019-02-26T02:12:34.404Z,102636.20
2019-02-26T02:15:18.089Z,102631.69
2019-02-26T02:17:50.420Z,102624.88
2019-02-26T02:20:23.718Z,102628.77
2019-02-26T02:22:58.173Z,102622.92
2019-02-26T02:25:35.266Z,102621.09
2019-02-26T02:28:07.047Z,102626.24
2019-02-26T02:30:40.332Z,102622.92
2019-02-26T02:33:17.306Z,102621.12
2019-02-26T02:35:48.631Z,102618.39
2019-02-26T02:38:21.905Z,102622.38
2019-02-26T02:40:55.186Z,102622.79
2019-02-26T02:43:28.542Z,102622.81
2019-02-26T02:46:01.840Z,102618.77
2019-02-26T02:48:35.145Z,102624.45
2019-02-26T02:51:10.832Z,102628.17
2019-02-26T02:53:45.280Z,102618.39
2019-02-26T02:56:18.474Z,102619.98
2019-02-26T02:58:51.791Z,102618.89
2019-02-26T03:01:28.685Z,102617.42
2019-02-26T03:04:01.113Z,102624.20
2019-02-26T03:06:36.059Z,102618.28
2019-02-26T03:09:15.295Z,102621.61
2019-02-26T03:11:50.458Z,102614.77
2019-02-26T03:14:24.044Z,102623.48
2019-02-26T03:16:57.326Z,102617.73
2019-02-26T03:19:32.443Z,102615.88
2019-02-26T03:22:07.305Z,102617.67
2019-02-26T03:24:40.712Z,102616.77
2019-02-26T03:27:13.988Z,102613.84
2019-02-26T03:29:49.818Z,102610.52
2019-02-26T03:32:22.299Z,102607.37
2019-02-26T03:34:55.596Z,102611.09
2019-02-26T03:37:31.230Z,102606.20
2019-02-26T03:40:06.589Z,102597.84
2019-02-26T03:42:41.613Z,102588.03
2019-02-26T03:45:23.592Z,102586.26
2019-02-26T03:47:51.781Z,102593.01
2019-02-26T03:50:27.116Z,102587.20
2019-02-26T03:53:00.090Z,102590.86
2019-02-26T03:55:35.667Z,102581.03
2019-02-26T03:58:08.488Z,102582.69
2019-02-26T04:00:43.979Z,102582.34
2019-02-26T04:03:17.638Z,102582.03
2019-02-26T04:05:51.119Z,102588.45
2019-02-26T04:08:26.833Z,102590.41
2019-02-26T04:11:01.910Z,102596.46
2019-02-26T04:13:34.485Z,102596.08
2019-02-26T04:16:07.776Z,102590.40
2019-02-26T04:18:41.587Z,102585.05
2019-02-26T04:21:18.296Z,102580.20
2019-02-26T04:23:50.399Z,102574.48
2019-02-26T04:26:43.549Z,102578.59
2019-02-26T04:29:23.175Z,102578.19
2019-02-26T04:32:12.194Z,102573.48
2019-02-26T04:34:51.440Z,102575.91
2019-02-26T04:37:42.841Z,102575.16
2019-02-26T04:40:22.188Z,102575.47
2019-02-26T04:43:10.144Z,102578.90
2019-02-26T04:45:54.499Z,102578.00
2019-02-26T04:48:32.473Z,102583.09
2019-02-26T04:51:05.966Z,102585.95
2019-02-26T04:53:39.247Z,102580.39
2019-02-26T04:56:14.997Z,102579.61
2019-02-26T04:58:47.862Z,102579.50
2019-02-26T05:01:21.163Z,102579.03
2019-02-26T05:03:54.459Z,102577.09
2019-02-26T05:06:27.738Z,102576.63
2019-02-26T05:09:02.848Z,102576.52
2019-02-26T05:11:40.403Z,102575.22
2019-02-26T05:14:11.738Z,102573.97
2019-02-26T05:16:46.111Z,102576.63
2019-02-26T05:19:21.803Z,102573.25
2019-02-26T05:21:56.777Z,102577.70
2019-02-26T05:24:29.534Z,102574.68
2019-02-26T05:27:15.655Z,102575.78
2019-02-26T05:29:49.637Z,102572.87
2019-02-26T05:32:26.634Z,102581.09
2019-02-26T05:34:58.779Z,102583.03
2019-02-26T05:37:34.827Z,102580.69
2019-02-26T05:40:10.677Z,102589.30
2019-02-26T05:42:42.766Z,102587.52
2019-02-26T05:45:16.124Z,102584.06
2019-02-26T05:47:51.280Z,102585.03
2019-02-26T05:50:24.424Z,102584.92
2019-02-26T05:53:01.389Z,102579.86
2019-02-26T05:55:32.743Z,102583.89
2019-02-26T05:58:07.426Z,102589.57
2019-02-26T06:00:41.038Z,102593.20
2019-02-26T06:03:16.291Z,102597.66
2019-02-26T06:05:51.908Z,102590.72
2019-02-26T06:08:26.691Z,102601.84
2019-02-26T06:10:59.421Z,102609.10
2019-02-26T06:13:35.526Z,102609.62
2019-02-26T06:16:07.717Z,102606.42
2019-02-26T06:18:41.990Z,102607.86
2019-02-26T06:21:18.428Z,102611.12
2019-02-26T06:23:53.078Z,102617.16
2019-02-26T06:26:30.381Z,102611.92
2019-02-26T06:29:01.383Z,102617.89
2019-02-26T06:31:34.702Z,102618.53
2019-02-26T06:34:08.828Z,102620.48
2019-02-26T06:36:44.318Z,102612.68
2019-02-26T06:39:20.218Z,102613.98
2019-02-26T06:41:53.088Z,102614.78
2019-02-26T06:44:26.389Z,102619.55
2019-02-26T06:47:00.336Z,102623.17
2019-02-26T06:49:34.678Z,102633.34
2019-02-26T06:52:08.344Z,102635.27
2019-02-26T06:54:47.642Z,102639.98
2019-02-26T06:57:18.058Z,102644.04
2019-02-26T06:59:53.160Z,102652.02
2019-02-26T07:02:29.023Z,102650.33
2019-02-26T07:05:01.431Z,102650.16
2019-02-26T07:07:34.747Z,102646.58
2019-02-26T07:10:13.819Z,102643.32
2019-02-26T07:12:48.156Z,102643.91
2019-02-26T07:15:20.889Z,102652.02
2019-02-26T07:17:54.196Z,102647.97
2019-02-26T07:20:33.829Z,102647.13
2019-02-26T07:23:03.922Z,102648.56
2019-02-26T07:25:39.445Z,102644.23
2019-02-26T07:28:12.573Z,102642.77
2019-02-26T07:30:46.895Z,102642.61
2019-02-26T07:33:20.314Z,102640.56
2019-02-26T07:35:57.425Z,102632.25
2019-02-26T07:38:40.603Z,102631.32
2019-02-26T07:41:06.647Z,102615.67
2019-02-26T07:43:41.813Z,102619.93
2019-02-26T07:46:17.042Z,102615.56
2019-02-26T07:48:53.645Z,102609.47
2019-02-26T07:51:25.016Z,102613.59
2019-02-26T07:54:00.267Z,102627.42
2019-02-26T07:56:33.424Z,102634.84
2019-02-26T07:59:09.445Z,102627.27
2019-02-26T08:01:43.070Z,102628.00
2019-02-26T08:04:18.385Z,102625.70
2019-02-26T08:06:52.393Z,102618.86
2019-02-26T08:09:26.784Z,102617.07
2019-02-26T08:12:01.882Z,102607.62
2019-02-26T08:14:35.076Z,102606.97
2019-02-26T08:17:08.355Z,102604.36
2019-02-26T08:19:43.734Z,102610.52
2019-02-26T08:22:16.662Z,102606.02
2019-02-26T08:24:50.943Z,102611.77
2019-02-26T08:27:26.296Z,102610.69
2019-02-26T08:30:01.356Z,102618.10
2019-02-26T08:32:34.610Z,102615.17
2019-02-26T08:35:09.050Z,102609.43
2019-02-26T08:37:42.331Z,102618.84
2019-02-26T08:40:16.022Z,102610.78
2019-02-26T08:42:49.296Z,102611.97
2019-02-26T08:45:25.171Z,102609.50
2019-02-26T08:47:57.664Z,102608.06
2019-02-26T08:50:33.405Z,102599.45
2019-02-26T08:53:05.961Z,102604.34
2019-02-26T08:55:39.283Z,102612.13
2019-02-26T08:58:12.637Z,102611.72
2019-02-26T09:00:45.960Z,102609.33
2019-02-26T09:03:20.423Z,102602.07
2019-02-26T09:05:54.411Z,102593.74
2019-02-26T09:08:30.762Z,102587.22
2019-02-26T09:11:05.798Z,102580.77
2019-02-26T09:13:41.034Z,102588.53
2019-02-26T09:16:13.916Z,102595.91
2019-02-26T09:18:47.183Z,102592.31
2019-02-26T09:21:22.700Z,102594.25
2019-02-26T09:23:57.001Z,102594.62
2019-02-26T09:26:30.662Z,102594.20
2019-02-26T09:29:03.981Z,102607.77
2019-02-26T09:31:37.319Z,102604.53
2019-02-26T09:34:10.707Z,102604.47
2019-02-26T09:36:45.850Z,102602.37
2019-02-26T09:39:19.194Z,102599.78
2019-02-26T09:41:52.487Z,102590.74
2019-02-26T09:44:26.175Z,102591.99
2019-02-26T09:47:04.428Z,102594.66
2019-02-26T09:49:35.986Z,102598.51
2019-02-26T09:52:09.374Z,102591.55
2019-02-26T09:54:45.130Z,102595.75
2019-02-26T09:57:20.438Z,102601.24
2019-02-26T09:59:55.260Z,102596.53
2019-02-26T10:02:28.826Z,102598.31
2019-02-26T10:05:02.198Z,102597.14
2019-02-26T10:07:37.002Z,102587.69
2019-02-26T10:10:14.154Z,102583.88
2019-02-26T10:12:47.620Z,102587.02
2019-02-26T10:15:20.976Z,102584.91
2019-02-26T10:17:56.225Z,102576.83
2019-02-26T10:20:31.651Z,102587.00
2019-02-26T10:23:09.224Z,102588.73
2019-02-26T10:25:42.854Z,102592.97
2019-02-26T10:28:21.643Z,102589.04
2019-02-26T10:30:56.975Z,102586.01
2019-02-26T10:33:33.473Z,102584.43
2019-02-26T10:36:08.487Z,102587.86
2019-02-26T10:38:43.236Z,102588.43
2019-02-26T10:41:22.765Z,102581.80
2019-02-26T10:43:56.104Z,102577.73
2019-02-26T10:46:32.151Z,102576.83
2019-02-26T10:49:04.696Z,102574.33
2019-02-26T10:51:38.037Z,102572.34
2019-02-26T10:54:13.375Z,102571.50
2019-02-26T10:56:46.449Z,102573.55
2019-02-26T10:59:19.797Z,102570.95
2019-02-26T11:01:55.277Z,102563.00
2019-02-26T11:04:34.887Z,102561.73
2019-02-26T11:07:04.950Z,102565.63
2019-02-26T11:09:38.371Z,102558.26
2019-02-26T11:12:11.719Z,102555.75
2019-02-26T11:14:45.133Z,102552.45
2019-02-26T11:17:20.753Z,102541.95
2019-02-26T11:19:55.586Z,102535.88
2019-02-26T11:22:29.598Z,102529.94
2019-02-26T11:25:02.942Z,102523.88
2019-02-26T11:27:38.014Z,102525.22
2019-02-26T11:30:23.864Z,102525.30
2019-02-26T11:33:01.982Z,102522.77
2019-02-26T11:35:33.213Z,102516.65
2019-02-26T11:38:09.338Z,102521.90
2019-02-26T11:40:43.062Z,102516.66
2019-02-26T11:43:19.484Z,102521.06
2019-02-26T11:45:51.433Z,102516.65
2019-02-26T11:48:25.908Z,102514.02
2019-02-26T11:51:01.071Z,102510.08
2019-02-26T11:53:34.827Z,102510.08
2019-02-26T11:56:08.156Z,102500.37
2019-02-26T11:58:41.517Z,102507.38
2019-02-26T12:01:14.971Z,102498.09
2019-02-26T12:03:50.478Z,102498.07
2019-02-26T12:06:24.081Z,102497.16
2019-02-26T12:08:57.572Z,102489.59
2019-02-26T12:11:30.952Z,102490.03
2019-02-26T12:14:04.407Z,102486.83
2019-02-26T12:16:37.704Z,102484.18
2019-02-26T12:19:11.041Z,102481.41
2019-02-26T12:21:44.380Z,102477.31
2019-02-26T12:24:17.707Z,102471.06
2019-02-26T12:26:52.496Z,102474.58
2019-02-26T12:29:28.380Z,102471.11
2019-02-26T12:32:04.549Z,102464.39
2019-02-26T12:34:38.563Z,102460.12
2019-02-26T12:37:11.757Z,102453.42
2019-02-26T12:39:47.321Z,102447.52
2019-02-26T12:42:21.671Z,102445.05
2019-02-26T12:44:57.536Z,102444.55
2019-02-26T12:47:30.193Z,102439.51
2019-02-26T12:50:05.997Z,102435.19
2019-02-26T12:52:39.218Z,102430.85
2019-02-26T12:55:14.332Z,102424.28
2019-02-26T12:57:49.796Z,102424.28
2019-02-26T13:00:24.122Z,102420.41
2019-02-26T13:02:57.532Z,102420.41
2019-02-26T13:05:30.832Z,102417.18
2019-02-26T13:08:06.075Z,102403.13
2019-02-26T13:10:41.970Z,102402.48
2019-02-26T13:13:14.340Z,102397.75
2019-02-26T13:15:47.707Z,102388.71
2019-02-26T13:18:21.143Z,102388.71
2019-02-26T13:20:59.552Z,102386.05
2019-02-26T13:23:29.501Z,102386.05
2019-02-26T13:26:03.870Z,102377.75
2019-02-26T13:28:40.906Z,102375.61
2019-02-26T13:31:17.518Z,102366.68
2019-02-26T13:33:48.074Z,102366.07
2019-02-26T13:36:21.475Z,102364.09
2019-02-26T13:38:54.832Z,102360.19
2019-02-26T13:41:30.343Z,102356.05
2019-02-26T13:44:03.361Z,102349.67
2019-02-26T13:46:36.775Z,102348.44
2019-02-26T13:49:10.207Z,102347.69
2019-02-26T13:51:43.643Z,102345.37
2019-02-26T13:54:16.973Z,102347.77
2019-02-26T13:56:50.391Z,102345.91
2019-02-26T13:59:23.792Z,102344.50
2019-02-26T14:01:57.358Z,102334.17
2019-02-26T14:04:30.725Z,102328.45
2019-02-26T14:07:04.068Z,102331.91
2019-02-26T14:09:37.445Z,102328.67
2019-02-26T14:12:10.891Z,102327.78
2019-02-26T14:14:44.311Z,102318.28
2019-02-26T14:17:17.630Z,102319.56
2019-02-26T14:19:51.098Z,102319.73
2019-02-26T14:22:24.787Z,102312.88
2019-02-26T14:24:58.156Z,102307.65
2019-02-26T14:27:32.389Z,102299.59
2019-02-26T14:30:09.071Z,102294.03
2019-02-26T14:32:42.441Z,102296.89
2019-02-26T14:35:16.311Z,102292.55
2019-02-26T14:37:49.728Z,102289.80
2019-02-26T14:40:23.584Z,102287.64
2019-02-26T14:42:57.111Z,102286.00
2019-02-26T14:45:30.432Z,102284.33
2019-02-26T14:48:03.851Z,102280.63
2019-02-26T14:50:37.617Z,102276.86
2019-02-26T14:53:11.095Z,102270.64
2019-02-26T14:55:44.469Z,102272.44
2019-02-26T14:58:17.948Z,102264.44
2019-02-26T15:00:57.642Z,102265.94
2019-02-26T15:03:26.381Z,102258.68
2019-02-26T15:05:59.854Z,102264.94
2019-02-26T15:08:33.290Z,102262.77
2019-02-26T15:11:06.784Z,102256.70
2019-02-26T15:13:40.104Z,102254.41
2019-02-26T15:16:13.454Z,102250.19
2019-02-26T15:18:46.818Z,102246.27
2019-02-26T15:21:20.232Z,102243.41
2019-02-26T15:23:53.564Z,102231.16
2019-02-26T15:26:26.962Z,102237.53
2019-02-26T15:29:00.307Z,102227.45
2019-02-26T15:31:33.745Z,102234.82
2019-02-26T15:34:07.137Z,102227.21
2019-02-26T15:36:40.635Z,102225.84
2019-02-26T15:39:14.116Z,102226.52
2019-02-26T15:41:50.215Z,102220.96
2019-02-26T15:44:22.655Z,102220.19
2019-02-26T15:46:55.965Z,102214.09
2019-02-26T15:49:29.349Z,102218.08
2019-02-26T15:52:02.651Z,102218.58
2019-02-26T15:54:35.973Z,102210.98
2019-02-26T15:57:09.639Z,102217.89
2019-02-26T15:59:43.029Z,102218.30
2019-02-26T16:02:17.097Z,102222.28
2019-02-26T16:04:50.940Z,102228.59
2019-02-26T16:07:24.358Z,102223.36
2019-02-26T16:09:57.646Z,102224.05
2019-02-26T16:12:31.101Z,102223.66
2019-02-26T16:15:08.097Z,102221.09
2019-02-26T16:17:41.947Z,102220.44
2019-02-26T16:20:18.075Z,102225.19
2019-02-26T16:22:51.885Z,102223.52
2019-02-26T16:25:25.172Z,102222.80
2019-02-26T16:27:59.744Z,102221.20
2019-02-26T16:30:39.007Z,102217.67
2019-02-26T16:33:15.789Z,102222.44
2019-02-26T16:35:49.085Z,102225.30
2019-02-26T16:38:22.512Z,102221.80
2019-02-26T16:40:57.114Z,102222.84
2019-02-26T16:43:32.045Z,102219.68
2019-02-26T16:46:08.511Z,102218.77
2019-02-26T16:48:41.729Z,102227.67
2019-02-26T16:51:16.671Z,102229.88
2019-02-26T16:53:50.352Z,102231.36
2019-02-26T16:56:23.748Z,102231.36
2019-02-26T16:58:57.326Z,102237.53
2019-02-26T17:01:30.654Z,102237.53
2019-02-26T17:04:05.613Z,102234.98
2019-02-26T17:06:39.154Z,102233.36
2019-02-26T17:09:12.781Z,102234.77
2019-02-26T17:11:47.077Z,102234.77
2019-02-26T17:14:21.806Z,102238.37
2019-02-26T17:16:55.196Z,102242.25
2019-02-26T17:19:28.486Z,102250.95
2019-02-26T17:22:04.581Z,102253.04
2019-02-26T17:24:37.019Z,102247.41
2019-02-26T17:27:10.394Z,102247.50
2019-02-26T17:29:43.790Z,102246.17
2019-02-26T17:32:17.253Z,102246.13
2019-02-26T17:34:50.573Z,102250.92
2019-02-26T17:37:24.153Z,102246.48
2019-02-26T17:39:57.470Z,102241.67
2019-02-26T17:42:30.881Z,102248.67
2019-02-26T17:45:06.694Z,102248.60
2019-02-26T17:47:40.296Z,102249.74
2019-02-26T17:50:19.381Z,102257.05
2019-02-26T17:52:52.790Z,102254.05
2019-02-26T17:55:26.188Z,102250.27
2019-02-26T17:58:00.773Z,102248.67
2019-02-26T18:00:38.199Z,102255.21
2019-02-26T18:03:11.755Z,102248.62
2019-02-26T18:05:51.223Z,102254.14
2019-02-26T18:08:20.191Z,102260.63
2019-02-26T18:10:53.489Z,102258.79
2019-02-26T18:13:26.873Z,102262.55
2019-02-26T18:16:08.709Z,102263.20
2019-02-26T18:18:35.338Z,102266.38
2019-02-26T18:21:08.655Z,102271.79
2019-02-26T18:23:42.013Z,102273.38
2019-02-26T18:26:17.539Z,102269.36
2019-02-26T18:28:50.437Z,102270.47
2019-02-26T18:31:26.398Z,102273.04
2019-02-26T18:33:58.954Z,102270.34
2019-02-26T18:36:32.319Z,102269.52
2019-02-26T18:39:06.521Z,102275.95
2019-02-26T18:41:39.827Z,102269.75
2019-02-26T18:44:13.145Z,102269.09
2019-02-26T18:46:46.558Z,102271.78
2019-02-26T18:49:21.846Z,102265.13
2019-02-26T18:51:54.973Z,102265.33
2019-02-26T18:54:28.353Z,102266.88
2019-02-26T18:57:02.107Z,102267.33
2019-02-26T18:59:35.558Z,102266.95
2019-02-26T19:02:08.855Z,102268.61
2019-02-26T19:04:42.269Z,102270.55
2019-02-26T19:07:15.586Z,102277.20
2019-02-26T19:09:48.926Z,102281.94
2019-02-26T19:12:22.281Z,102275.80
2019-02-26T19:14:55.767Z,102273.66
2019-02-26T19:17:29.099Z,102274.46
2019-02-26T19:20:02.465Z,102274.67
2019-02-26T19:22:35.886Z,102279.48
2019-02-26T19:25:09.822Z,102278.04
2019-02-26T19:27:43.230Z,102280.53
2019-02-26T19:30:20.804Z,102289.38
2019-02-26T19:32:54.219Z,102283.19
2019-02-26T19:35:27.619Z,102277.64
2019-02-26T19:38:02.877Z,102282.34
2019-02-26T19:40:54.567Z,102284.16
2019-02-26T19:43:28.900Z,102275.05
2019-02-26T19:46:02.328Z,102277.20
2019-02-26T19:48:35.736Z,102273.34
2019-02-26T19:51:09.108Z,102278.44
2019-02-26T19:53:42.451Z,102279.61
2019-02-26T19:56:15.793Z,102283.34
2019-02-26T19:58:49.133Z,102281.24
2019-02-26T20:01:25.443Z,102277.42
2019-02-26T20:03:57.718Z,102276.56
2019-02-26T20:06:31.154Z,102280.92
2019-02-26T20:09:06.525Z,102279.38
2019-02-26T20:11:40.009Z,102280.05
2019-02-26T20:14:14.801Z,102275.27
2019-02-26T20:16:48.382Z,102274.90
2019-02-26T20:19:21.724Z,102272.17
2019-02-26T20:21:55.113Z,102271.65
2019-02-26T20:24:28.584Z,102269.63
2019-02-26T20:27:02.202Z,102273.93
2019-02-26T20:29:35.602Z,102262.81
2019-02-26T20:32:08.987Z,102262.95
2019-02-26T20:34:42.365Z,102261.98
2019-02-26T20:37:15.848Z,102267.09
2019-02-26T20:39:49.165Z,102263.95
2019-02-26T20:42:22.482Z,102258.35
2019-02-26T20:44:58.928Z,102265.33
2019-02-26T20:47:31.621Z,102262.89
2019-02-26T20:50:08.481Z,102264.80
2019-02-26T20:52:41.784Z,102266.72
2019-02-26T20:55:29.273Z,102263.69
2019-02-26T20:58:02.726Z,102257.81
2019-02-26T21:00:42.243Z,102262.80
2019-02-26T21:03:11.177Z,102262.89
2019-02-26T21:05:45.349Z,102259.95
2019-02-26T21:08:18.891Z,102252.25
2019-02-26T21:10:52.224Z,102261.05
2019-02-26T21:13:25.573Z,102265.97
2019-02-26T21:15:58.880Z,102260.73
2019-02-26T21:18:32.234Z,102252.75
2019-02-26T21:21:05.587Z,102243.99
2019-02-26T21:23:38.993Z,102257.37
2019-02-26T21:26:12.405Z,102252.01
2019-02-26T21:28:45.792Z,102257.05
2019-02-26T21:31:19.657Z,102257.84
2019-02-26T21:33:53.111Z,102260.30
2019-02-26T21:36:27.921Z,102256.45
2019-02-26T21:39:01.447Z,102260.28
2019-02-26T21:41:34.814Z,102261.07
2019-02-26T21:44:08.917Z,102256.78
2019-02-26T21:46:42.896Z,102254.45
2019-02-26T21:49:16.188Z,102252.94
2019-02-26T21:51:49.600Z,102256.53
2019-02-26T21:54:24.730Z,102251.04
2019-02-26T21:56:58.097Z,102255.05
2019-02-26T21:59:32.772Z,102254.66
2019-02-26T22:02:06.771Z,102261.30
2019-02-26T22:04:40.274Z,102263.38
2019-02-26T22:07:13.650Z,102254.30
2019-02-26T22:09:47.042Z,102253.52
2019-02-26T22:12:21.843Z,102254.86
2019-02-26T22:14:57.209Z,102247.59
2019-02-26T22:17:30.573Z,102251.58
2019-02-26T22:20:09.189Z,102253.66
2019-02-26T22:22:41.760Z,102248.20
2019-02-26T22:25:17.013Z,102253.11
2019-02-26T22:27:50.406Z,102259.88
2019-02-26T22:30:23.706Z,102263.75
2019-02-26T22:32:57.259Z,102255.81
2019-02-26T22:35:30.594Z,102261.25
2019-02-26T22:38:03.972Z,102255.64
2019-02-26T22:40:37.368Z,102257.14
2019-02-26T22:43:13.442Z,102257.90
2019-02-26T22:45:45.745Z,102257.16
2019-02-26T22:48:19.081Z,102252.40
2019-02-26T22:50:52.412Z,102250.50
2019-02-26T22:53:25.757Z,102247.91
2019-02-26T22:55:59.143Z,102249.56
2019-02-26T22:58:35.635Z,102246.36
2019-02-26T23:01:14.900Z,102241.80
2019-02-26T23:03:48.388Z,102234.73
2019-02-26T23:06:21.799Z,102236.97
2019-02-26T23:08:55.157Z,102232.34
2019-02-26T23:11:31.702Z,102237.78
2019-02-26T23:14:04.976Z,102240.05
2019-02-26T23:16:39.108Z,102229.00
2019-02-26T23:19:13.065Z,102234.94
2019-02-26T23:21:49.803Z,102237.22
2019-02-26T23:24:21.680Z,102236.56
2019-02-26T23:26:55.372Z,102238.56
2019-02-26T23:29:28.767Z,102241.36
2019-02-26T23:32:05.764Z,102240.98
2019-02-26T23:34:37.372Z,102232.77
2019-02-26T23:37:10.802Z,102231.02
2019-02-26T23:39:44.137Z,102232.04
2019-02-26T23:42:17.612Z,102239.38
2019-02-26T23:44:51.580Z,102232.63
2019-02-26T23:47:24.906Z,102235.19
2019-02-26T23:49:58.236Z,102235.91
2019-02-26T23:52:31.660Z,102241.92
2019-02-26T23:55:06.432Z,102237.84
2019-02-26T23:57:39.889Z,102240.22
